sensor_id;sensor_type;location;lat;lon;timestamp;temperature;humidity
11284;DHT22;5698;47.332;11.180;2022-12-26T00:02:09;2.90;99.90
11284;DHT22;5698;47.332;11.180;2022-12-26T00:04:36;2.90;99.90
11284;DHT22;5698;47.332;11.180;2022-12-26T00:07:04;2.90;99.90
11284;DHT22;5698;47.332;11.180;2022-12-26T00:09:32;2.80;99.90
11284;DHT22;5698;47.332;11.180;2022-12-26T00:11:59;2.80;99.90
11284;DHT22;5698;47.332;11.180;2022-12-26T00:14:26;2.80;99.90
11284;DHT22;5698;47.332;11.180;2022-12-26T00:16:53;2.80;99.90
11284;DHT22;5698;47.332;11.180;2022-12-26T00:19:20;2.80;99.90
11284;DHT22;5698;47.332;11.180;2022-12-26T00:21:47;2.80;99.90
11284;DHT22;5698;47.332;11.180;2022-12-26T00:24:16;2.80;99.90
11284;DHT22;5698;47.332;11.180;2022-12-26T00:26:43;2.80;99.90
11284;DHT22;5698;47.332;11.180;2022-12-26T00:29:10;2.70;99.90
11284;DHT22;5698;47.332;11.180;2022-12-26T00:31:37;2.70;99.90
11284;DHT22;5698;47.332;11.180;2022-12-26T00:34:04;2.70;99.90
11284;DHT22;5698;47.332;11.180;2022-12-26T00:36:33;2.70;99.90
11284;DHT22;5698;47.332;11.180;2022-12-26T00:39:02;2.70;99.90
11284;DHT22;5698;47.332;11.180;2022-12-26T00:41:31;2.60;99.90
11284;DHT22;5698;47.332;11.180;2022-12-26T00:43:58;2.60;99.90
11284;DHT22;5698;47.332;11.180;2022-12-26T00:46:25;2.60;99.90
11284;DHT22;5698;47.332;11.180;2022-12-26T00:48:53;2.60;99.90
11284;DHT22;5698;47.332;11.180;2022-12-26T00:51:20;2.50;99.90
11284;DHT22;5698;47.332;11.180;2022-12-26T00:53:47;2.50;99.90
11284;DHT22;5698;47.332;11.180;2022-12-26T00:56:14;2.50;99.90
11284;DHT22;5698;47.332;11.180;2022-12-26T00:58:43;2.50;99.90
11284;DHT22;5698;47.332;11.180;2022-12-26T01:01:14;2.50;99.90
11284;DHT22;5698;47.332;11.180;2022-12-26T01:03:42;2.50;99.90
11284;DHT22;5698;47.332;11.180;2022-12-26T01:06:09;2.50;99.90
11284;DHT22;5698;47.332;11.180;2022-12-26T01:08:36;2.50;99.90
11284;DHT22;5698;47.332;11.180;2022-12-26T01:11:05;2.50;99.90
11284;DHT22;5698;47.332;11.180;2022-12-26T01:13:34;2.50;99.90
11284;DHT22;5698;47.332;11.180;2022-12-26T01:16:03;2.30;99.90
11284;DHT22;5698;47.332;11.180;2022-12-26T01:18:31;2.50;99.90
11284;DHT22;5698;47.332;11.180;2022-12-26T01:20:59;2.50;99.90
11284;DHT22;5698;47.332;11.180;2022-12-26T01:23:27;2.50;99.90
11284;DHT22;5698;47.332;11.180;2022-12-26T01:25:54;2.50;99.90
11284;DHT22;5698;47.332;11.180;2022-12-26T01:28:22;2.40;99.90
11284;DHT22;5698;47.332;11.180;2022-12-26T01:30:49;2.40;99.90
11284;DHT22;5698;47.332;11.180;2022-12-26T01:33:17;2.40;99.90
11284;DHT22;5698;47.332;11.180;2022-12-26T01:35:49;2.50;99.90
11284;DHT22;5698;47.332;11.180;2022-12-26T01:38:16;2.40;99.90
11284;DHT22;5698;47.332;11.180;2022-12-26T01:40:44;2.40;99.90
11284;DHT22;5698;47.332;11.180;2022-12-26T01:43:12;2.50;99.90
11284;DHT22;5698;47.332;11.180;2022-12-26T01:45:41;2.50;99.90
11284;DHT22;5698;47.332;11.180;2022-12-26T01:48:14;2.40;99.90
11284;DHT22;5698;47.332;11.180;2022-12-26T01:50:47;2.40;99.90
11284;DHT22;5698;47.332;11.180;2022-12-26T01:53:18;2.40;99.90
11284;DHT22;5698;47.332;11.180;2022-12-26T01:55:52;2.40;99.90
11284;DHT22;5698;47.332;11.180;2022-12-26T01:58:23;2.30;99.90
11284;DHT22;5698;47.332;11.180;2022-12-26T02:00:52;2.30;99.90
11284;DHT22;5698;47.332;11.180;2022-12-26T02:03:20;2.40;99.90
11284;DHT22;5698;47.332;11.180;2022-12-26T02:06:08;2.40;99.90
11284;DHT22;5698;47.332;11.180;2022-12-26T02:08:36;2.40;99.90
11284;DHT22;5698;47.332;11.180;2022-12-26T02:11:09;2.40;99.90
11284;DHT22;5698;47.332;11.180;2022-12-26T02:13:38;2.30;99.90
11284;DHT22;5698;47.332;11.180;2022-12-26T02:16:07;2.30;99.90
11284;DHT22;5698;47.332;11.180;2022-12-26T02:18:35;2.30;99.90
11284;DHT22;5698;47.332;11.180;2022-12-26T02:21:12;2.30;99.90
11284;DHT22;5698;47.332;11.180;2022-12-26T02:27:13;2.30;99.90
11284;DHT22;5698;47.332;11.180;2022-12-26T02:30:09;2.20;99.90
11284;DHT22;5698;47.332;11.180;2022-12-26T02:32:56;2.20;99.90
11284;DHT22;5698;47.332;11.180;2022-12-26T02:35:43;2.20;99.90
11284;DHT22;5698;47.332;11.180;2022-12-26T02:38:25;2.10;99.90
11284;DHT22;5698;47.332;11.180;2022-12-26T02:41:06;2.10;99.90
11284;DHT22;5698;47.332;11.180;2022-12-26T02:43:38;2.10;99.90
11284;DHT22;5698;47.332;11.180;2022-12-26T02:46:12;2.00;99.90
11284;DHT22;5698;47.332;11.180;2022-12-26T02:49:11;2.00;99.90
11284;DHT22;5698;47.332;11.180;2022-12-26T02:51:52;2.00;99.90
11284;DHT22;5698;47.332;11.180;2022-12-26T02:54:55;2.00;99.90
11284;DHT22;5698;47.332;11.180;2022-12-26T02:57:46;2.00;99.90
11284;DHT22;5698;47.332;11.180;2022-12-26T03:00:35;2.00;99.90
11284;DHT22;5698;47.332;11.180;2022-12-26T03:03:31;2.00;99.90
11284;DHT22;5698;47.332;11.180;2022-12-26T03:06:22;2.00;99.90
11284;DHT22;5698;47.332;11.180;2022-12-26T03:09:10;1.90;99.90
11284;DHT22;5698;47.332;11.180;2022-12-26T03:11:58;1.90;99.90
11284;DHT22;5698;47.332;11.180;2022-12-26T03:14:47;1.90;99.90
11284;DHT22;5698;47.332;11.180;2022-12-26T03:17:22;1.90;99.90
11284;DHT22;5698;47.332;11.180;2022-12-26T03:19:51;1.90;99.90
11284;DHT22;5698;47.332;11.180;2022-12-26T03:22:35;1.90;99.90
11284;DHT22;5698;47.332;11.180;2022-12-26T03:25:07;2.00;99.90
11284;DHT22;5698;47.332;11.180;2022-12-26T03:27:52;2.00;99.90
11284;DHT22;5698;47.332;11.180;2022-12-26T03:30:20;2.00;99.90
11284;DHT22;5698;47.332;11.180;2022-12-26T03:33:05;2.00;99.90
11284;DHT22;5698;47.332;11.180;2022-12-26T03:35:53;2.00;99.90
11284;DHT22;5698;47.332;11.180;2022-12-26T03:38:22;2.00;99.90
11284;DHT22;5698;47.332;11.180;2022-12-26T03:40:53;2.00;99.90
11284;DHT22;5698;47.332;11.180;2022-12-26T03:43:47;2.00;99.90
11284;DHT22;5698;47.332;11.180;2022-12-26T03:46:43;2.00;99.90
11284;DHT22;5698;47.332;11.180;2022-12-26T03:49:35;2.00;99.90
11284;DHT22;5698;47.332;11.180;2022-12-26T03:52:27;2.00;99.90
11284;DHT22;5698;47.332;11.180;2022-12-26T03:55:22;2.00;99.90
11284;DHT22;5698;47.332;11.180;2022-12-26T03:58:12;1.90;99.90
11284;DHT22;5698;47.332;11.180;2022-12-26T04:00:59;1.90;99.90
11284;DHT22;5698;47.332;11.180;2022-12-26T04:03:45;1.90;99.90
11284;DHT22;5698;47.332;11.180;2022-12-26T04:06:33;1.90;99.90
11284;DHT22;5698;47.332;11.180;2022-12-26T04:09:25;1.80;99.90
11284;DHT22;5698;47.332;11.180;2022-12-26T04:12:17;1.80;99.90
11284;DHT22;5698;47.332;11.180;2022-12-26T04:15:11;1.70;99.90
11284;DHT22;5698;47.332;11.180;2022-12-26T04:18:04;1.70;99.90
11284;DHT22;5698;47.332;11.180;2022-12-26T04:20:56;1.70;99.90
11284;DHT22;5698;47.332;11.180;2022-12-26T04:23:30;1.70;99.90
11284;DHT22;5698;47.332;11.180;2022-12-26T04:26:22;1.70;99.90
11284;DHT22;5698;47.332;11.180;2022-12-26T04:29:10;1.60;99.90
11284;DHT22;5698;47.332;11.180;2022-12-26T04:32:00;1.60;99.90
11284;DHT22;5698;47.332;11.180;2022-12-26T04:34:50;1.60;99.90
11284;DHT22;5698;47.332;11.180;2022-12-26T04:37:39;1.70;99.90
11284;DHT22;5698;47.332;11.180;2022-12-26T04:40:27;1.70;99.90
11284;DHT22;5698;47.332;11.180;2022-12-26T04:43:13;1.70;99.90
11284;DHT22;5698;47.332;11.180;2022-12-26T04:46:01;1.70;99.90
11284;DHT22;5698;47.332;11.180;2022-12-26T04:48:28;1.70;99.90
11284;DHT22;5698;47.332;11.180;2022-12-26T04:51:13;1.60;99.90
11284;DHT22;5698;47.332;11.180;2022-12-26T04:53:40;1.60;99.90
11284;DHT22;5698;47.332;11.180;2022-12-26T04:56:08;1.60;99.90
11284;DHT22;5698;47.332;11.180;2022-12-26T04:58:36;1.60;99.90
11284;DHT22;5698;47.332;11.180;2022-12-26T05:01:04;1.60;99.90
11284;DHT22;5698;47.332;11.180;2022-12-26T05:03:45;1.60;99.90
11284;DHT22;5698;47.332;11.180;2022-12-26T05:06:30;1.50;99.90
11284;DHT22;5698;47.332;11.180;2022-12-26T05:09:16;1.50;99.90
11284;DHT22;5698;47.332;11.180;2022-12-26T05:12:06;1.50;99.90
11284;DHT22;5698;47.332;11.180;2022-12-26T05:14:34;1.50;99.90
11284;DHT22;5698;47.332;11.180;2022-12-26T05:17:03;1.50;99.90
11284;DHT22;5698;47.332;11.180;2022-12-26T05:19:47;1.50;99.90
11284;DHT22;5698;47.332;11.180;2022-12-26T05:22:33;1.60;99.90
11284;DHT22;5698;47.332;11.180;2022-12-26T05:25:23;1.60;99.90
11284;DHT22;5698;47.332;11.180;2022-12-26T05:28:08;1.50;99.90
11284;DHT22;5698;47.332;11.180;2022-12-26T05:30:52;1.50;99.90
11284;DHT22;5698;47.332;11.180;2022-12-26T05:33:20;1.50;99.90
11284;DHT22;5698;47.332;11.180;2022-12-26T05:36:06;1.50;99.90
11284;DHT22;5698;47.332;11.180;2022-12-26T05:38:33;1.50;99.90
11284;DHT22;5698;47.332;11.180;2022-12-26T05:41:00;1.50;99.90
11284;DHT22;5698;47.332;11.180;2022-12-26T05:43:28;1.50;99.90
11284;DHT22;5698;47.332;11.180;2022-12-26T05:45:55;1.50;99.90
11284;DHT22;5698;47.332;11.180;2022-12-26T05:48:24;1.50;99.90
11284;DHT22;5698;47.332;11.180;2022-12-26T05:50:51;1.50;99.90
11284;DHT22;5698;47.332;11.180;2022-12-26T05:53:18;1.50;99.90
11284;DHT22;5698;47.332;11.180;2022-12-26T05:55:45;1.50;99.90
11284;DHT22;5698;47.332;11.180;2022-12-26T05:58:12;1.50;99.90
11284;DHT22;5698;47.332;11.180;2022-12-26T06:00:39;1.50;99.90
11284;DHT22;5698;47.332;11.180;2022-12-26T06:03:07;1.40;99.90
11284;DHT22;5698;47.332;11.180;2022-12-26T06:05:35;1.40;99.90
11284;DHT22;5698;47.332;11.180;2022-12-26T06:08:02;1.40;99.90
11284;DHT22;5698;47.332;11.180;2022-12-26T06:10:29;1.40;99.90
11284;DHT22;5698;47.332;11.180;2022-12-26T06:12:58;1.40;99.90
11284;DHT22;5698;47.332;11.180;2022-12-26T06:15:26;1.40;99.90
11284;DHT22;5698;47.332;11.180;2022-12-26T06:17:54;1.40;99.90
11284;DHT22;5698;47.332;11.180;2022-12-26T06:20:21;1.40;99.90
11284;DHT22;5698;47.332;11.180;2022-12-26T06:22:49;1.40;99.90
11284;DHT22;5698;47.332;11.180;2022-12-26T06:25:16;1.40;99.90
11284;DHT22;5698;47.332;11.180;2022-12-26T06:27:44;1.40;99.90
11284;DHT22;5698;47.332;11.180;2022-12-26T06:30:11;1.40;99.90
11284;DHT22;5698;47.332;11.180;2022-12-26T06:32:38;1.40;99.90
11284;DHT22;5698;47.332;11.180;2022-12-26T06:35:06;1.40;99.90
11284;DHT22;5698;47.332;11.180;2022-12-26T06:37:33;1.40;99.90
11284;DHT22;5698;47.332;11.180;2022-12-26T06:40:02;1.30;99.90
11284;DHT22;5698;47.332;11.180;2022-12-26T06:42:29;1.30;99.90
11284;DHT22;5698;47.332;11.180;2022-12-26T06:44:56;1.30;99.90
11284;DHT22;5698;47.332;11.180;2022-12-26T06:47:23;1.30;99.90
11284;DHT22;5698;47.332;11.180;2022-12-26T06:49:50;1.30;99.90
11284;DHT22;5698;47.332;11.180;2022-12-26T06:52:17;1.30;99.90
11284;DHT22;5698;47.332;11.180;2022-12-26T06:54:44;1.30;99.90
11284;DHT22;5698;47.332;11.180;2022-12-26T06:57:13;1.30;99.90
11284;DHT22;5698;47.332;11.180;2022-12-26T06:59:40;1.20;99.90
11284;DHT22;5698;47.332;11.180;2022-12-26T07:02:08;1.20;99.90
11284;DHT22;5698;47.332;11.180;2022-12-26T07:04:36;1.20;99.90
11284;DHT22;5698;47.332;11.180;2022-12-26T07:07:03;1.20;99.90
11284;DHT22;5698;47.332;11.180;2022-12-26T07:09:30;1.20;99.90
11284;DHT22;5698;47.332;11.180;2022-12-26T07:11:57;1.20;99.90
11284;DHT22;5698;47.332;11.180;2022-12-26T07:14:25;1.20;99.90
11284;DHT22;5698;47.332;11.180;2022-12-26T07:16:52;1.10;99.90
11284;DHT22;5698;47.332;11.180;2022-12-26T07:19:19;1.20;99.90
11284;DHT22;5698;47.332;11.180;2022-12-26T07:21:47;1.20;99.90
11284;DHT22;5698;47.332;11.180;2022-12-26T07:24:15;1.10;99.90
11284;DHT22;5698;47.332;11.180;2022-12-26T07:26:42;1.20;99.90
11284;DHT22;5698;47.332;11.180;2022-12-26T07:29:10;1.20;99.90
11284;DHT22;5698;47.332;11.180;2022-12-26T07:31:39;1.20;99.90
11284;DHT22;5698;47.332;11.180;2022-12-26T07:34:07;1.10;99.90
11284;DHT22;5698;47.332;11.180;2022-12-26T07:36:34;1.10;99.90
11284;DHT22;5698;47.332;11.180;2022-12-26T07:39:01;1.10;99.90
11284;DHT22;5698;47.332;11.180;2022-12-26T07:41:28;1.10;99.90
11284;DHT22;5698;47.332;11.180;2022-12-26T07:44:12;1.10;99.90
11284;DHT22;5698;47.332;11.180;2022-12-26T07:46:41;1.10;99.90
11284;DHT22;5698;47.332;11.180;2022-12-26T07:49:11;1.20;99.90
11284;DHT22;5698;47.332;11.180;2022-12-26T07:51:38;1.20;99.90
11284;DHT22;5698;47.332;11.180;2022-12-26T07:54:06;1.20;99.90
11284;DHT22;5698;47.332;11.180;2022-12-26T07:56:34;1.20;99.90
11284;DHT22;5698;47.332;11.180;2022-12-26T07:59:01;1.30;99.90
11284;DHT22;5698;47.332;11.180;2022-12-26T08:01:28;1.40;99.90
11284;DHT22;5698;47.332;11.180;2022-12-26T08:03:57;1.50;99.90
11284;DHT22;5698;47.332;11.180;2022-12-26T08:06:24;1.50;99.90
11284;DHT22;5698;47.332;11.180;2022-12-26T08:08:51;1.60;99.90
11284;DHT22;5698;47.332;11.180;2022-12-26T08:11:20;1.70;99.90
11284;DHT22;5698;47.332;11.180;2022-12-26T08:13:49;1.80;99.90
11284;DHT22;5698;47.332;11.180;2022-12-26T08:16:16;1.90;99.90
11284;DHT22;5698;47.332;11.180;2022-12-26T08:18:44;1.90;99.90
11284;DHT22;5698;47.332;11.180;2022-12-26T08:21:12;2.00;99.90
11284;DHT22;5698;47.332;11.180;2022-12-26T08:23:39;2.10;99.90
11284;DHT22;5698;47.332;11.180;2022-12-26T08:26:09;2.20;99.90
11284;DHT22;5698;47.332;11.180;2022-12-26T08:28:38;2.30;99.90
11284;DHT22;5698;47.332;11.180;2022-12-26T08:31:06;2.40;99.90
11284;DHT22;5698;47.332;11.180;2022-12-26T08:33:34;2.50;99.90
11284;DHT22;5698;47.332;11.180;2022-12-26T08:36:01;2.60;99.90
11284;DHT22;5698;47.332;11.180;2022-12-26T08:38:30;2.80;99.90
11284;DHT22;5698;47.332;11.180;2022-12-26T08:40:58;2.90;99.90
11284;DHT22;5698;47.332;11.180;2022-12-26T08:43:25;3.00;99.90
11284;DHT22;5698;47.332;11.180;2022-12-26T08:45:59;3.20;99.90
11284;DHT22;5698;47.332;11.180;2022-12-26T08:48:26;3.30;99.90
11284;DHT22;5698;47.332;11.180;2022-12-26T08:50:57;3.40;99.90
11284;DHT22;5698;47.332;11.180;2022-12-26T08:53:25;3.40;99.90
11284;DHT22;5698;47.332;11.180;2022-12-26T08:55:55;3.50;99.90
11284;DHT22;5698;47.332;11.180;2022-12-26T08:58:22;3.70;99.90
11284;DHT22;5698;47.332;11.180;2022-12-26T09:00:50;3.80;99.90
11284;DHT22;5698;47.332;11.180;2022-12-26T09:03:17;3.80;99.90
11284;DHT22;5698;47.332;11.180;2022-12-26T09:05:47;4.00;99.90
11284;DHT22;5698;47.332;11.180;2022-12-26T09:08:14;4.20;99.90
11284;DHT22;5698;47.332;11.180;2022-12-26T09:10:44;4.40;99.90
11284;DHT22;5698;47.332;11.180;2022-12-26T09:13:12;4.40;99.90
11284;DHT22;5698;47.332;11.180;2022-12-26T09:15:39;4.70;99.90
11284;DHT22;5698;47.332;11.180;2022-12-26T09:18:06;4.80;99.90
11284;DHT22;5698;47.332;11.180;2022-12-26T09:20:35;5.00;99.90
11284;DHT22;5698;47.332;11.180;2022-12-26T09:23:02;5.10;99.90
11284;DHT22;5698;47.332;11.180;2022-12-26T09:25:31;5.30;99.90
11284;DHT22;5698;47.332;11.180;2022-12-26T09:27:58;5.60;99.90
11284;DHT22;5698;47.332;11.180;2022-12-26T09:30:27;5.80;99.90
11284;DHT22;5698;47.332;11.180;2022-12-26T09:32:54;6.00;99.90
11284;DHT22;5698;47.332;11.180;2022-12-26T09:35:21;6.20;99.90
11284;DHT22;5698;47.332;11.180;2022-12-26T09:37:48;6.30;99.90
11284;DHT22;5698;47.332;11.180;2022-12-26T09:40:21;6.20;99.90
11284;DHT22;5698;47.332;11.180;2022-12-26T09:43:08;6.30;99.90
11284;DHT22;5698;47.332;11.180;2022-12-26T09:45:48;6.40;99.90
11284;DHT22;5698;47.332;11.180;2022-12-26T09:48:20;6.70;99.90
11284;DHT22;5698;47.332;11.180;2022-12-26T09:50:50;6.90;99.90
11284;DHT22;5698;47.332;11.180;2022-12-26T09:53:24;7.20;99.90
11284;DHT22;5698;47.332;11.180;2022-12-26T09:55:55;7.50;99.90
11284;DHT22;5698;47.332;11.180;2022-12-26T09:58:26;7.60;99.90
11284;DHT22;5698;47.332;11.180;2022-12-26T10:01:02;7.80;99.90
11284;DHT22;5698;47.332;11.180;2022-12-26T10:03:36;8.00;99.90
11284;DHT22;5698;47.332;11.180;2022-12-26T10:06:10;8.20;99.90
11284;DHT22;5698;47.332;11.180;2022-12-26T10:11:36;8.70;99.90
11284;DHT22;5698;47.332;11.180;2022-12-26T10:14:15;8.90;99.90
11284;DHT22;5698;47.332;11.180;2022-12-26T10:16:51;9.20;99.90
11284;DHT22;5698;47.332;11.180;2022-12-26T10:19:38;9.10;99.90
11284;DHT22;5698;47.332;11.180;2022-12-26T10:22:20;9.30;99.90
11284;DHT22;5698;47.332;11.180;2022-12-26T10:24:50;9.10;99.90
11284;DHT22;5698;47.332;11.180;2022-12-26T10:27:19;9.10;99.90
11284;DHT22;5698;47.332;11.180;2022-12-26T10:29:50;9.10;99.90
11284;DHT22;5698;47.332;11.180;2022-12-26T10:32:23;9.20;99.90
11284;DHT22;5698;47.332;11.180;2022-12-26T10:34:51;9.40;99.90
11284;DHT22;5698;47.332;11.180;2022-12-26T10:37:23;9.60;99.90
11284;DHT22;5698;47.332;11.180;2022-12-26T10:39:56;9.30;99.90
11284;DHT22;5698;47.332;11.180;2022-12-26T10:42:29;9.10;99.90
11284;DHT22;5698;47.332;11.180;2022-12-26T10:44:57;9.30;99.90
11284;DHT22;5698;47.332;11.180;2022-12-26T10:47:27;9.20;99.90
11284;DHT22;5698;47.332;11.180;2022-12-26T10:49:56;9.30;99.90
11284;DHT22;5698;47.332;11.180;2022-12-26T10:52:29;9.10;99.90
11284;DHT22;5698;47.332;11.180;2022-12-26T10:54:59;9.50;99.90
11284;DHT22;5698;47.332;11.180;2022-12-26T10:57:28;9.90;99.90
11284;DHT22;5698;47.332;11.180;2022-12-26T10:59:57;10.30;99.90
11284;DHT22;5698;47.332;11.180;2022-12-26T11:02:27;10.50;99.90
11284;DHT22;5698;47.332;11.180;2022-12-26T11:05:05;10.70;99.90
11284;DHT22;5698;47.332;11.180;2022-12-26T11:07:36;10.90;99.90
11284;DHT22;5698;47.332;11.180;2022-12-26T11:10:12;11.20;99.90
11284;DHT22;5698;47.332;11.180;2022-12-26T11:12:41;11.50;99.90
11284;DHT22;5698;47.332;11.180;2022-12-26T11:15:21;11.70;99.90
11284;DHT22;5698;47.332;11.180;2022-12-26T11:17:51;11.80;99.90
11284;DHT22;5698;47.332;11.180;2022-12-26T11:20:26;12.00;99.90
11284;DHT22;5698;47.332;11.180;2022-12-26T11:23:17;12.10;99.90
11284;DHT22;5698;47.332;11.180;2022-12-26T11:25:48;12.30;99.90
11284;DHT22;5698;47.332;11.180;2022-12-26T11:28:24;12.40;99.90
11284;DHT22;5698;47.332;11.180;2022-12-26T11:30:52;12.30;99.90
11284;DHT22;5698;47.332;11.180;2022-12-26T11:33:28;12.30;99.90
11284;DHT22;5698;47.332;11.180;2022-12-26T11:36:16;12.20;99.90
11284;DHT22;5698;47.332;11.180;2022-12-26T11:38:50;12.30;99.90
11284;DHT22;5698;47.332;11.180;2022-12-26T11:41:33;12.00;99.40
11284;DHT22;5698;47.332;11.180;2022-12-26T11:44:24;11.80;99.60
11284;DHT22;5698;47.332;11.180;2022-12-26T11:46:55;11.60;99.20
11284;DHT22;5698;47.332;11.180;2022-12-26T11:49:29;11.40;99.90
11284;DHT22;5698;47.332;11.180;2022-12-26T11:52:00;11.30;99.20
11284;DHT22;5698;47.332;11.180;2022-12-26T11:54:31;11.10;98.90
11284;DHT22;5698;47.332;11.180;2022-12-26T11:57:10;10.80;99.30
11284;DHT22;5698;47.332;11.180;2022-12-26T11:59:40;10.80;99.90
11284;DHT22;5698;47.332;11.180;2022-12-26T12:02:22;11.10;99.90
11284;DHT22;5698;47.332;11.180;2022-12-26T12:04:53;11.50;99.90
11284;DHT22;5698;47.332;11.180;2022-12-26T12:08:01;11.80;99.90
11284;DHT22;5698;47.332;11.180;2022-12-26T12:10:48;12.00;99.90
11284;DHT22;5698;47.332;11.180;2022-12-26T12:13:29;12.10;99.90
11284;DHT22;5698;47.332;11.180;2022-12-26T12:16:06;12.00;98.60
11284;DHT22;5698;47.332;11.180;2022-12-26T12:18:43;11.70;99.00
11284;DHT22;5698;47.332;11.180;2022-12-26T12:21:28;11.70;99.90
11284;DHT22;5698;47.332;11.180;2022-12-26T12:24:32;11.60;99.90
11284;DHT22;5698;47.332;11.180;2022-12-26T12:27:09;11.40;99.90
11284;DHT22;5698;47.332;11.180;2022-12-26T12:29:47;11.10;99.60
11284;DHT22;5698;47.332;11.180;2022-12-26T12:32:17;11.00;99.90
11284;DHT22;5698;47.332;11.180;2022-12-26T12:35:10;10.80;99.80
11284;DHT22;5698;47.332;11.180;2022-12-26T12:37:53;10.50;99.50
11284;DHT22;5698;47.332;11.180;2022-12-26T12:40:30;10.50;99.90
11284;DHT22;5698;47.332;11.180;2022-12-26T12:43:05;10.30;99.90
11284;DHT22;5698;47.332;11.180;2022-12-26T12:45:45;10.20;99.90
11284;DHT22;5698;47.332;11.180;2022-12-26T12:48:35;10.10;99.90
11284;DHT22;5698;47.332;11.180;2022-12-26T12:51:13;9.90;99.90
11284;DHT22;5698;47.332;11.180;2022-12-26T12:56:46;9.80;99.90
11284;DHT22;5698;47.332;11.180;2022-12-26T12:59:22;9.90;99.90
11284;DHT22;5698;47.332;11.180;2022-12-26T13:01:56;9.90;99.90
11284;DHT22;5698;47.332;11.180;2022-12-26T13:04:28;9.80;99.90
11284;DHT22;5698;47.332;11.180;2022-12-26T13:07:02;9.80;99.90
11284;DHT22;5698;47.332;11.180;2022-12-26T13:09:36;9.70;99.90
11284;DHT22;5698;47.332;11.180;2022-12-26T13:12:13;9.60;99.90
11284;DHT22;5698;47.332;11.180;2022-12-26T13:14:45;9.60;99.90
11284;DHT22;5698;47.332;11.180;2022-12-26T13:17:16;9.50;99.90
11284;DHT22;5698;47.332;11.180;2022-12-26T13:19:47;9.40;99.90
11284;DHT22;5698;47.332;11.180;2022-12-26T13:22:19;9.40;99.90
11284;DHT22;5698;47.332;11.180;2022-12-26T13:24:55;9.30;99.90
11284;DHT22;5698;47.332;11.180;2022-12-26T13:27:25;9.30;99.90
11284;DHT22;5698;47.332;11.180;2022-12-26T13:29:53;9.20;99.90
11284;DHT22;5698;47.332;11.180;2022-12-26T13:32:22;9.20;99.90
11284;DHT22;5698;47.332;11.180;2022-12-26T13:34:51;9.10;99.90
11284;DHT22;5698;47.332;11.180;2022-12-26T13:40:25;8.90;99.90
11284;DHT22;5698;47.332;11.180;2022-12-26T13:42:55;8.90;99.90
11284;DHT22;5698;47.332;11.180;2022-12-26T13:45:48;8.70;99.90
11284;DHT22;5698;47.332;11.180;2022-12-26T13:48:53;8.60;99.90
11284;DHT22;5698;47.332;11.180;2022-12-26T13:51:40;8.50;99.90
11284;DHT22;5698;47.332;11.180;2022-12-26T13:54:10;8.40;99.90
11284;DHT22;5698;47.332;11.180;2022-12-26T13:57:17;8.30;99.90
11284;DHT22;5698;47.332;11.180;2022-12-26T14:00:10;8.10;99.90
11284;DHT22;5698;47.332;11.180;2022-12-26T14:06:11;7.90;99.90
11284;DHT22;5698;47.332;11.180;2022-12-26T14:09:00;7.90;99.90
11284;DHT22;5698;47.332;11.180;2022-12-26T14:11:46;7.90;99.90
11284;DHT22;5698;47.332;11.180;2022-12-26T14:14:26;7.80;99.90
11284;DHT22;5698;47.332;11.180;2022-12-26T14:17:01;7.80;99.90
11284;DHT22;5698;47.332;11.180;2022-12-26T14:19:44;7.80;99.90
11284;DHT22;5698;47.332;11.180;2022-12-26T14:22:18;7.70;99.90
11284;DHT22;5698;47.332;11.180;2022-12-26T14:24:59;7.70;99.90
11284;DHT22;5698;47.332;11.180;2022-12-26T14:27:35;7.60;99.90
11284;DHT22;5698;47.332;11.180;2022-12-26T14:30:23;7.50;99.90
11284;DHT22;5698;47.332;11.180;2022-12-26T14:33:22;7.40;99.90
11284;DHT22;5698;47.332;11.180;2022-12-26T14:36:01;7.40;99.90
11284;DHT22;5698;47.332;11.180;2022-12-26T14:38:39;7.20;99.90
11284;DHT22;5698;47.332;11.180;2022-12-26T14:41:11;7.10;99.90
11284;DHT22;5698;47.332;11.180;2022-12-26T14:44:12;7.10;99.90
11284;DHT22;5698;47.332;11.180;2022-12-26T14:47:02;7.10;99.90
11284;DHT22;5698;47.332;11.180;2022-12-26T14:49:40;7.10;99.90
11284;DHT22;5698;47.332;11.180;2022-12-26T14:52:31;7.00;99.90
11284;DHT22;5698;47.332;11.180;2022-12-26T14:54:59;7.00;99.90
11284;DHT22;5698;47.332;11.180;2022-12-26T14:57:47;6.90;99.90
11284;DHT22;5698;47.332;11.180;2022-12-26T15:00:29;6.80;99.90
11284;DHT22;5698;47.332;11.180;2022-12-26T15:06:52;6.70;99.90
11284;DHT22;5698;47.332;11.180;2022-12-26T15:15:59;6.40;99.90
11284;DHT22;5698;47.332;11.180;2022-12-26T15:19:08;6.30;99.90
11284;DHT22;5698;47.332;11.180;2022-12-26T15:24:59;6.20;99.90
11284;DHT22;5698;47.332;11.180;2022-12-26T15:27:42;6.20;99.90
11284;DHT22;5698;47.332;11.180;2022-12-26T15:30:20;6.10;99.90
11284;DHT22;5698;47.332;11.180;2022-12-26T15:32:55;6.00;99.90
11284;DHT22;5698;47.332;11.180;2022-12-26T15:35:30;5.80;99.90
11284;DHT22;5698;47.332;11.180;2022-12-26T15:38:13;5.80;99.90
11284;DHT22;5698;47.332;11.180;2022-12-26T15:40:51;5.80;99.90
11284;DHT22;5698;47.332;11.180;2022-12-26T15:43:38;5.80;99.90
11284;DHT22;5698;47.332;11.180;2022-12-26T15:46:15;5.70;99.90
11284;DHT22;5698;47.332;11.180;2022-12-26T15:51:48;5.50;99.90
11284;DHT22;5698;47.332;11.180;2022-12-26T15:54:30;5.50;99.90
11284;DHT22;5698;47.332;11.180;2022-12-26T15:57:15;5.40;99.90
11284;DHT22;5698;47.332;11.180;2022-12-26T16:00:08;5.40;99.90
11284;DHT22;5698;47.332;11.180;2022-12-26T16:02:48;5.30;99.90
11284;DHT22;5698;47.332;11.180;2022-12-26T16:05:36;5.30;99.90
11284;DHT22;5698;47.332;11.180;2022-12-26T16:11:19;5.20;99.90
11284;DHT22;5698;47.332;11.180;2022-12-26T16:13:50;5.20;99.90
11284;DHT22;5698;47.332;11.180;2022-12-26T16:16:23;5.20;99.90
11284;DHT22;5698;47.332;11.180;2022-12-26T16:18:51;5.00;99.90
11284;DHT22;5698;47.332;11.180;2022-12-26T16:21:19;4.90;99.90
11284;DHT22;5698;47.332;11.180;2022-12-26T16:24:07;4.80;99.90
11284;DHT22;5698;47.332;11.180;2022-12-26T16:26:41;4.70;99.90
11284;DHT22;5698;47.332;11.180;2022-12-26T16:29:14;4.80;99.90
11284;DHT22;5698;47.332;11.180;2022-12-26T16:31:42;4.80;99.90
11284;DHT22;5698;47.332;11.180;2022-12-26T16:34:14;4.90;99.90
11284;DHT22;5698;47.332;11.180;2022-12-26T16:36:43;4.80;99.90
11284;DHT22;5698;47.332;11.180;2022-12-26T16:39:11;4.90;99.90
11284;DHT22;5698;47.332;11.180;2022-12-26T16:41:57;4.90;99.90
11284;DHT22;5698;47.332;11.180;2022-12-26T16:44:31;4.90;99.90
11284;DHT22;5698;47.332;11.180;2022-12-26T16:47:00;4.90;99.90
11284;DHT22;5698;47.332;11.180;2022-12-26T16:49:30;4.90;99.90
11284;DHT22;5698;47.332;11.180;2022-12-26T16:51:58;4.90;99.90
11284;DHT22;5698;47.332;11.180;2022-12-26T16:54:28;4.90;99.90
11284;DHT22;5698;47.332;11.180;2022-12-26T16:57:06;4.90;99.90
11284;DHT22;5698;47.332;11.180;2022-12-26T16:59:43;4.90;99.90
11284;DHT22;5698;47.332;11.180;2022-12-26T17:02:16;4.80;99.90
11284;DHT22;5698;47.332;11.180;2022-12-26T17:04:53;4.80;99.90
11284;DHT22;5698;47.332;11.180;2022-12-26T17:07:20;4.80;99.90
11284;DHT22;5698;47.332;11.180;2022-12-26T17:09:51;4.70;99.90